sensor_id;sensor_type;location;lat;lon;timestamp;P1;durP1;ratioP1;P2;durP2;ratioP2
57856;SDS011;43683;48.650;9.290;2023-05-02T00:00:07;9.70;;;5.63;;
57856;SDS011;43683;48.650;9.290;2023-05-02T00:02:33;8.55;;;5.60;;
57856;SDS011;43683;48.650;9.290;2023-05-02T00:04:59;8.50;;;5.38;;
57856;SDS011;43683;48.650;9.290;2023-05-02T00:07:25;8.50;;;5.40;;
57856;SDS011;43683;48.650;9.290;2023-05-02T00:09:50;10.57;;;5.53;;
57856;SDS011;43683;48.650;9.290;2023-05-02T00:12:16;10.30;;;5.30;;
57856;SDS011;43683;48.650;9.290;2023-05-02T00:14:42;9.05;;;5.53;;
57856;SDS011;43683;48.650;9.290;2023-05-02T00:17:07;9.05;;;4.75;;
57856;SDS011;43683;48.650;9.290;2023-05-02T00:19:36;10.55;;;5.60;;
57856;SDS011;43683;48.650;9.290;2023-05-02T00:22:03;7.68;;;4.80;;
57856;SDS011;43683;48.650;9.290;2023-05-02T00:24:29;9.18;;;5.15;;
57856;SDS011;43683;48.650;9.290;2023-05-02T00:26:55;8.93;;;5.53;;
57856;SDS011;43683;48.650;9.290;2023-05-02T00:29:20;8.85;;;5.53;;
57856;SDS011;43683;48.650;9.290;2023-05-02T00:31:45;8.65;;;5.72;;
57856;SDS011;43683;48.650;9.290;2023-05-02T00:34:11;9.60;;;5.13;;
57856;SDS011;43683;48.650;9.290;2023-05-02T00:36:37;10.15;;;5.90;;
57856;SDS011;43683;48.650;9.290;2023-05-02T00:39:02;9.48;;;6.13;;
57856;SDS011;43683;48.650;9.290;2023-05-02T00:41:28;9.18;;;6.10;;
57856;SDS011;43683;48.650;9.290;2023-05-02T00:43:54;9.23;;;5.75;;
57856;SDS011;43683;48.650;9.290;2023-05-02T00:46:20;9.98;;;5.80;;
57856;SDS011;43683;48.650;9.290;2023-05-02T00:48:45;9.00;;;5.80;;
57856;SDS011;43683;48.650;9.290;2023-05-02T00:51:11;10.07;;;5.57;;
57856;SDS011;43683;48.650;9.290;2023-05-02T00:53:37;9.75;;;5.35;;
57856;SDS011;43683;48.650;9.290;2023-05-02T00:56:03;8.70;;;5.22;;
57856;SDS011;43683;48.650;9.290;2023-05-02T00:58:29;10.20;;;5.32;;
57856;SDS011;43683;48.650;9.290;2023-05-02T01:01:02;9.25;;;5.28;;
57856;SDS011;43683;48.650;9.290;2023-05-02T01:03:38;8.90;;;5.50;;
57856;SDS011;43683;48.650;9.290;2023-05-02T01:09:10;9.13;;;5.50;;
57856;SDS011;43683;48.650;9.290;2023-05-02T01:11:47;8.93;;;5.57;;
57856;SDS011;43683;48.650;9.290;2023-05-02T01:14:20;9.90;;;5.82;;
57856;SDS011;43683;48.650;9.290;2023-05-02T01:16:46;8.45;;;5.38;;
57856;SDS011;43683;48.650;9.290;2023-05-02T01:19:28;9.35;;;5.07;;
57856;SDS011;43683;48.650;9.290;2023-05-02T01:22:05;9.90;;;5.75;;
57856;SDS011;43683;48.650;9.290;2023-05-02T01:25:18;8.82;;;5.57;;
57856;SDS011;43683;48.650;9.290;2023-05-02T01:30:09;10.82;;;5.50;;
57856;SDS011;43683;48.650;9.290;2023-05-02T01:32:36;10.95;;;5.70;;
57856;SDS011;43683;48.650;9.290;2023-05-02T01:35:04;8.55;;;5.88;;
57856;SDS011;43683;48.650;9.290;2023-05-02T01:37:31;8.70;;;5.28;;
57856;SDS011;43683;48.650;9.290;2023-05-02T01:39:58;7.68;;;4.68;;
57856;SDS011;43683;48.650;9.290;2023-05-02T01:42:25;9.27;;;5.60;;
57856;SDS011;43683;48.650;9.290;2023-05-02T01:44:51;8.80;;;4.72;;
57856;SDS011;43683;48.650;9.290;2023-05-02T01:47:20;8.75;;;5.07;;
57856;SDS011;43683;48.650;9.290;2023-05-02T01:49:48;10.85;;;5.75;;
57856;SDS011;43683;48.650;9.290;2023-05-02T01:52:13;10.85;;;6.10;;
57856;SDS011;43683;48.650;9.290;2023-05-02T01:54:40;10.23;;;6.13;;
57856;SDS011;43683;48.650;9.290;2023-05-02T01:57:07;11.88;;;6.70;;
57856;SDS011;43683;48.650;9.290;2023-05-02T01:59:35;10.38;;;6.20;;
57856;SDS011;43683;48.650;9.290;2023-05-02T02:02:04;13.00;;;6.13;;
57856;SDS011;43683;48.650;9.290;2023-05-02T02:04:32;10.43;;;6.53;;
57856;SDS011;43683;48.650;9.290;2023-05-02T02:07:01;13.80;;;7.72;;
57856;SDS011;43683;48.650;9.290;2023-05-02T02:09:30;13.90;;;7.85;;
57856;SDS011;43683;48.650;9.290;2023-05-02T02:12:00;16.08;;;8.75;;
57856;SDS011;43683;48.650;9.290;2023-05-02T02:14:35;20.75;;;8.95;;
57856;SDS011;43683;48.650;9.290;2023-05-02T02:17:11;62.25;;;15.55;;
57856;SDS011;43683;48.650;9.290;2023-05-02T02:19:38;148.05;;;26.25;;
57856;SDS011;43683;48.650;9.290;2023-05-02T02:22:05;108.05;;;21.52;;
57856;SDS011;43683;48.650;9.290;2023-05-02T02:24:33;160.80;;;29.13;;
57856;SDS011;43683;48.650;9.290;2023-05-02T02:27:01;146.48;;;26.42;;
57856;SDS011;43683;48.650;9.290;2023-05-02T02:29:27;173.43;;;24.92;;
57856;SDS011;43683;48.650;9.290;2023-05-02T02:31:53;77.07;;;18.85;;
57856;SDS011;43683;48.650;9.290;2023-05-02T02:34:18;122.32;;;21.83;;
57856;SDS011;43683;48.650;9.290;2023-05-02T02:37:04;66.88;;;15.82;;
57856;SDS011;43683;48.650;9.290;2023-05-02T02:42:35;102.25;;;12.95;;
57856;SDS011;43683;48.650;9.290;2023-05-02T02:45:22;122.75;;;19.38;;
57856;SDS011;43683;48.650;9.290;2023-05-02T02:53:59;229.48;;;28.50;;
57856;SDS011;43683;48.650;9.290;2023-05-02T02:56:40;262.27;;;31.52;;
57856;SDS011;43683;48.650;9.290;2023-05-02T03:01:38;105.75;;;17.45;;
57856;SDS011;43683;48.650;9.290;2023-05-02T03:04:07;197.40;;;23.23;;
57856;SDS011;43683;48.650;9.290;2023-05-02T03:06:35;163.90;;;23.00;;
57856;SDS011;43683;48.650;9.290;2023-05-02T03:09:00;147.25;;;16.95;;
57856;SDS011;43683;48.650;9.290;2023-05-02T03:11:28;138.77;;;17.25;;
57856;SDS011;43683;48.650;9.290;2023-05-02T03:13:53;39.97;;;8.80;;
57856;SDS011;43683;48.650;9.290;2023-05-02T03:19:03;263.33;;;26.80;;
57856;SDS011;43683;48.650;9.290;2023-05-02T03:21:30;155.82;;;20.65;;
57856;SDS011;43683;48.650;9.290;2023-05-02T03:23:57;94.18;;;13.52;;
57856;SDS011;43683;48.650;9.290;2023-05-02T03:28:49;39.40;;;9.82;;
57856;SDS011;43683;48.650;9.290;2023-05-02T03:31:15;125.28;;;16.50;;
57856;SDS011;43683;48.650;9.290;2023-05-02T03:33:41;47.72;;;11.82;;
57856;SDS011;43683;48.650;9.290;2023-05-02T03:36:06;73.85;;;10.73;;
57856;SDS011;43683;48.650;9.290;2023-05-02T03:38:32;56.78;;;9.63;;
57856;SDS011;43683;48.650;9.290;2023-05-02T03:40:58;81.80;;;13.60;;
57856;SDS011;43683;48.650;9.290;2023-05-02T03:43:23;35.65;;;8.95;;
57856;SDS011;43683;48.650;9.290;2023-05-02T03:45:49;34.03;;;8.60;;
57856;SDS011;43683;48.650;9.290;2023-05-02T03:48:15;11.85;;;6.13;;
57856;SDS011;43683;48.650;9.290;2023-05-02T03:50:40;10.52;;;5.65;;
57856;SDS011;43683;48.650;9.290;2023-05-02T03:53:06;10.10;;;6.13;;
57856;SDS011;43683;48.650;9.290;2023-05-02T03:55:37;8.23;;;5.30;;
57856;SDS011;43683;48.650;9.290;2023-05-02T03:58:04;9.73;;;6.00;;
57856;SDS011;43683;48.650;9.290;2023-05-02T04:00:30;8.90;;;5.43;;
57856;SDS011;43683;48.650;9.290;2023-05-02T04:02:56;9.43;;;5.38;;
57856;SDS011;43683;48.650;9.290;2023-05-02T04:05:21;9.60;;;5.63;;
57856;SDS011;43683;48.650;9.290;2023-05-02T04:07:47;7.97;;;5.32;;
57856;SDS011;43683;48.650;9.290;2023-05-02T04:10:13;9.60;;;5.53;;
57856;SDS011;43683;48.650;9.290;2023-05-02T04:12:41;9.15;;;5.20;;
57856;SDS011;43683;48.650;9.290;2023-05-02T04:15:07;10.15;;;5.47;;
57856;SDS011;43683;48.650;9.290;2023-05-02T04:17:36;14.07;;;5.32;;
57856;SDS011;43683;48.650;9.290;2023-05-02T04:20:02;9.00;;;5.22;;
57856;SDS011;43683;48.650;9.290;2023-05-02T04:22:28;7.93;;;4.85;;
57856;SDS011;43683;48.650;9.290;2023-05-02T04:24:54;8.30;;;5.28;;
57856;SDS011;43683;48.650;9.290;2023-05-02T04:27:20;7.75;;;5.43;;
57856;SDS011;43683;48.650;9.290;2023-05-02T04:29:49;9.95;;;6.20;;
57856;SDS011;43683;48.650;9.290;2023-05-02T04:32:15;10.32;;;6.78;;
57856;SDS011;43683;48.650;9.290;2023-05-02T04:34:41;9.68;;;5.60;;
57856;SDS011;43683;48.650;9.290;2023-05-02T04:37:06;10.13;;;5.53;;
57856;SDS011;43683;48.650;9.290;2023-05-02T04:39:32;9.63;;;6.10;;
57856;SDS011;43683;48.650;9.290;2023-05-02T04:41:58;11.65;;;6.10;;
57856;SDS011;43683;48.650;9.290;2023-05-02T04:44:24;10.48;;;5.60;;
57856;SDS011;43683;48.650;9.290;2023-05-02T04:46:49;10.40;;;5.68;;
57856;SDS011;43683;48.650;9.290;2023-05-02T04:49:15;10.38;;;6.15;;
57856;SDS011;43683;48.650;9.290;2023-05-02T04:51:41;9.77;;;5.90;;
57856;SDS011;43683;48.650;9.290;2023-05-02T04:54:06;10.52;;;6.30;;
57856;SDS011;43683;48.650;9.290;2023-05-02T04:56:32;10.93;;;6.80;;
57856;SDS011;43683;48.650;9.290;2023-05-02T04:58:57;10.80;;;6.97;;
57856;SDS011;43683;48.650;9.290;2023-05-02T05:01:23;13.95;;;7.95;;
57856;SDS011;43683;48.650;9.290;2023-05-02T05:03:51;11.43;;;7.07;;
57856;SDS011;43683;48.650;9.290;2023-05-02T05:06:17;11.15;;;7.07;;
57856;SDS011;43683;48.650;9.290;2023-05-02T05:08:43;12.68;;;6.90;;
57856;SDS011;43683;48.650;9.290;2023-05-02T05:11:09;11.68;;;6.72;;
57856;SDS011;43683;48.650;9.290;2023-05-02T05:13:35;10.40;;;6.65;;
57856;SDS011;43683;48.650;9.290;2023-05-02T05:16:01;8.93;;;6.22;;
57856;SDS011;43683;48.650;9.290;2023-05-02T05:18:27;12.50;;;7.03;;
57856;SDS011;43683;48.650;9.290;2023-05-02T05:20:53;11.20;;;7.25;;
57856;SDS011;43683;48.650;9.290;2023-05-02T05:23:19;11.75;;;6.72;;
57856;SDS011;43683;48.650;9.290;2023-05-02T05:25:44;12.27;;;6.95;;
57856;SDS011;43683;48.650;9.290;2023-05-02T05:28:10;9.27;;;6.00;;
57856;SDS011;43683;48.650;9.290;2023-05-02T05:30:36;10.15;;;6.35;;
57856;SDS011;43683;48.650;9.290;2023-05-02T05:33:02;10.48;;;6.20;;
57856;SDS011;43683;48.650;9.290;2023-05-02T05:35:27;10.57;;;6.68;;
57856;SDS011;43683;48.650;9.290;2023-05-02T05:37:53;10.13;;;6.20;;
57856;SDS011;43683;48.650;9.290;2023-05-02T05:40:18;10.75;;;5.75;;
57856;SDS011;43683;48.650;9.290;2023-05-02T05:42:45;9.40;;;6.25;;
57856;SDS011;43683;48.650;9.290;2023-05-02T05:45:10;10.85;;;6.47;;
57856;SDS011;43683;48.650;9.290;2023-05-02T05:47:36;10.80;;;5.82;;
57856;SDS011;43683;48.650;9.290;2023-05-02T05:50:02;10.20;;;5.57;;
57856;SDS011;43683;48.650;9.290;2023-05-02T05:52:28;9.27;;;6.10;;
57856;SDS011;43683;48.650;9.290;2023-05-02T05:54:54;10.15;;;6.13;;
57856;SDS011;43683;48.650;9.290;2023-05-02T05:57:20;10.48;;;7.00;;
57856;SDS011;43683;48.650;9.290;2023-05-02T05:59:46;9.57;;;5.78;;
57856;SDS011;43683;48.650;9.290;2023-05-02T06:02:12;11.70;;;6.60;;
57856;SDS011;43683;48.650;9.290;2023-05-02T06:04:38;11.25;;;6.78;;
57856;SDS011;43683;48.650;9.290;2023-05-02T06:07:04;10.32;;;6.57;;
57856;SDS011;43683;48.650;9.290;2023-05-02T06:09:29;12.70;;;6.88;;
57856;SDS011;43683;48.650;9.290;2023-05-02T06:11:55;11.15;;;7.45;;
57856;SDS011;43683;48.650;9.290;2023-05-02T06:14:20;10.77;;;6.82;;
57856;SDS011;43683;48.650;9.290;2023-05-02T06:16:46;12.93;;;7.53;;
57856;SDS011;43683;48.650;9.290;2023-05-02T06:19:11;12.93;;;7.88;;
57856;SDS011;43683;48.650;9.290;2023-05-02T06:21:37;13.60;;;7.75;;
57856;SDS011;43683;48.650;9.290;2023-05-02T06:24:02;13.35;;;7.90;;
57856;SDS011;43683;48.650;9.290;2023-05-02T06:26:28;11.57;;;6.97;;
57856;SDS011;43683;48.650;9.290;2023-05-02T06:28:54;11.27;;;6.60;;
57856;SDS011;43683;48.650;9.290;2023-05-02T06:31:20;11.02;;;7.20;;
57856;SDS011;43683;48.650;9.290;2023-05-02T06:33:45;9.80;;;6.35;;
57856;SDS011;43683;48.650;9.290;2023-05-02T06:36:11;9.48;;;5.85;;
57856;SDS011;43683;48.650;9.290;2023-05-02T06:38:37;9.48;;;6.28;;
57856;SDS011;43683;48.650;9.290;2023-05-02T06:41:02;10.23;;;5.90;;
57856;SDS011;43683;48.650;9.290;2023-05-02T06:43:28;8.27;;;5.72;;
57856;SDS011;43683;48.650;9.290;2023-05-02T06:45:53;10.98;;;6.30;;
57856;SDS011;43683;48.650;9.290;2023-05-02T06:48:20;11.07;;;6.72;;
57856;SDS011;43683;48.650;9.290;2023-05-02T06:50:46;9.02;;;5.93;;
57856;SDS011;43683;48.650;9.290;2023-05-02T06:53:12;11.40;;;6.78;;
57856;SDS011;43683;48.650;9.290;2023-05-02T06:55:38;9.98;;;5.80;;
57856;SDS011;43683;48.650;9.290;2023-05-02T06:58:03;9.35;;;6.38;;
57856;SDS011;43683;48.650;9.290;2023-05-02T07:00:29;10.40;;;6.35;;
57856;SDS011;43683;48.650;9.290;2023-05-02T07:02:54;9.25;;;6.03;;
57856;SDS011;43683;48.650;9.290;2023-05-02T07:05:20;10.80;;;5.70;;
57856;SDS011;43683;48.650;9.290;2023-05-02T07:07:45;9.77;;;6.00;;
57856;SDS011;43683;48.650;9.290;2023-05-02T07:10:11;9.07;;;6.38;;
57856;SDS011;43683;48.650;9.290;2023-05-02T07:12:37;9.93;;;6.50;;
57856;SDS011;43683;48.650;9.290;2023-05-02T07:15:04;9.32;;;6.38;;
57856;SDS011;43683;48.650;9.290;2023-05-02T07:17:30;9.77;;;6.53;;
57856;SDS011;43683;48.650;9.290;2023-05-02T07:19:56;9.48;;;6.03;;
57856;SDS011;43683;48.650;9.290;2023-05-02T07:22:21;10.05;;;6.20;;
57856;SDS011;43683;48.650;9.290;2023-05-02T07:24:47;9.23;;;6.05;;
57856;SDS011;43683;48.650;9.290;2023-05-02T07:27:13;8.73;;;5.20;;
57856;SDS011;43683;48.650;9.290;2023-05-02T07:29:38;8.95;;;5.65;;
57856;SDS011;43683;48.650;9.290;2023-05-02T07:34:31;10.00;;;5.57;;
57856;SDS011;43683;48.650;9.290;2023-05-02T07:36:57;9.88;;;6.78;;
57856;SDS011;43683;48.650;9.290;2023-05-02T07:39:23;9.80;;;5.18;;
57856;SDS011;43683;48.650;9.290;2023-05-02T07:41:50;9.52;;;5.80;;
57856;SDS011;43683;48.650;9.290;2023-05-02T07:44:16;9.80;;;6.57;;
57856;SDS011;43683;48.650;9.290;2023-05-02T07:46:42;8.88;;;6.35;;
57856;SDS011;43683;48.650;9.290;2023-05-02T07:49:07;9.55;;;6.13;;
57856;SDS011;43683;48.650;9.290;2023-05-02T07:51:33;8.95;;;5.63;;
57856;SDS011;43683;48.650;9.290;2023-05-02T07:53:58;9.43;;;6.80;;
57856;SDS011;43683;48.650;9.290;2023-05-02T07:56:25;9.13;;;5.80;;
57856;SDS011;43683;48.650;9.290;2023-05-02T07:58:50;10.25;;;5.93;;
57856;SDS011;43683;48.650;9.290;2023-05-02T08:01:16;11.50;;;6.85;;
57856;SDS011;43683;48.650;9.290;2023-05-02T08:03:43;9.55;;;6.25;;
57856;SDS011;43683;48.650;9.290;2023-05-02T08:06:08;11.18;;;6.78;;
57856;SDS011;43683;48.650;9.290;2023-05-02T08:08:34;10.32;;;6.72;;
57856;SDS011;43683;48.650;9.290;2023-05-02T08:11:00;11.05;;;7.22;;
57856;SDS011;43683;48.650;9.290;2023-05-02T08:13:26;10.73;;;6.38;;
57856;SDS011;43683;48.650;9.290;2023-05-02T08:15:52;9.27;;;6.18;;
57856;SDS011;43683;48.650;9.290;2023-05-02T08:18:25;10.90;;;6.43;;
57856;SDS011;43683;48.650;9.290;2023-05-02T08:20:51;11.02;;;6.20;;
57856;SDS011;43683;48.650;9.290;2023-05-02T08:23:17;9.95;;;6.40;;
57856;SDS011;43683;48.650;9.290;2023-05-02T08:25:43;15.10;;;9.48;;
57856;SDS011;43683;48.650;9.290;2023-05-02T08:28:08;14.57;;;9.07;;
57856;SDS011;43683;48.650;9.290;2023-05-02T08:30:34;17.08;;;10.35;;
57856;SDS011;43683;48.650;9.290;2023-05-02T08:32:59;15.30;;;10.13;;
57856;SDS011;43683;48.650;9.290;2023-05-02T08:35:25;16.00;;;9.90;;
57856;SDS011;43683;48.650;9.290;2023-05-02T08:40:18;17.20;;;10.35;;
57856;SDS011;43683;48.650;9.290;2023-05-02T08:42:46;14.77;;;9.35;;
57856;SDS011;43683;48.650;9.290;2023-05-02T08:45:12;14.93;;;9.70;;
57856;SDS011;43683;48.650;9.290;2023-05-02T08:47:41;18.50;;;10.43;;
57856;SDS011;43683;48.650;9.290;2023-05-02T08:50:08;15.85;;;11.20;;
57856;SDS011;43683;48.650;9.290;2023-05-02T08:55:00;16.60;;;10.90;;
57856;SDS011;43683;48.650;9.290;2023-05-02T08:57:28;17.35;;;10.52;;
57856;SDS011;43683;48.650;9.290;2023-05-02T08:59:54;14.98;;;10.50;;
57856;SDS011;43683;48.650;9.290;2023-05-02T09:04:51;15.55;;;10.52;;
57856;SDS011;43683;48.650;9.290;2023-05-02T09:07:19;16.13;;;10.38;;
57856;SDS011;43683;48.650;9.290;2023-05-02T09:09:46;15.63;;;10.45;;
57856;SDS011;43683;48.650;9.290;2023-05-02T09:12:11;17.48;;;10.13;;
57856;SDS011;43683;48.650;9.290;2023-05-02T09:14:38;17.13;;;10.45;;
57856;SDS011;43683;48.650;9.290;2023-05-02T09:17:03;16.45;;;10.75;;
57856;SDS011;43683;48.650;9.290;2023-05-02T09:19:29;15.43;;;10.27;;
57856;SDS011;43683;48.650;9.290;2023-05-02T09:21:58;18.02;;;10.98;;
57856;SDS011;43683;48.650;9.290;2023-05-02T09:24:25;17.75;;;11.48;;
57856;SDS011;43683;48.650;9.290;2023-05-02T09:27:00;16.45;;;10.57;;
57856;SDS011;43683;48.650;9.290;2023-05-02T09:29:27;15.25;;;10.23;;
57856;SDS011;43683;48.650;9.290;2023-05-02T09:31:54;18.30;;;10.65;;
57856;SDS011;43683;48.650;9.290;2023-05-02T09:34:20;16.35;;;9.90;;
57856;SDS011;43683;48.650;9.290;2023-05-02T09:36:49;15.07;;;9.88;;
57856;SDS011;43683;48.650;9.290;2023-05-02T09:39:18;16.83;;;10.23;;
57856;SDS011;43683;48.650;9.290;2023-05-02T09:41:46;18.48;;;11.23;;
57856;SDS011;43683;48.650;9.290;2023-05-02T09:44:13;14.07;;;10.05;;
57856;SDS011;43683;48.650;9.290;2023-05-02T09:46:44;16.70;;;11.07;;
57856;SDS011;43683;48.650;9.290;2023-05-02T09:49:14;14.30;;;10.40;;
57856;SDS011;43683;48.650;9.290;2023-05-02T09:51:43;17.35;;;10.15;;
57856;SDS011;43683;48.650;9.290;2023-05-02T09:54:10;16.25;;;10.27;;
57856;SDS011;43683;48.650;9.290;2023-05-02T09:56:50;15.23;;;10.32;;
57856;SDS011;43683;48.650;9.290;2023-05-02T09:59:17;15.50;;;10.43;;
57856;SDS011;43683;48.650;9.290;2023-05-02T10:01:42;15.73;;;10.50;;
57856;SDS011;43683;48.650;9.290;2023-05-02T10:04:09;15.75;;;10.93;;
57856;SDS011;43683;48.650;9.290;2023-05-02T10:06:41;16.42;;;10.57;;
57856;SDS011;43683;48.650;9.290;2023-05-02T10:09:08;14.82;;;9.48;;
57856;SDS011;43683;48.650;9.290;2023-05-02T10:11:34;14.60;;;10.43;;
57856;SDS011;43683;48.650;9.290;2023-05-02T10:14:04;13.93;;;10.18;;
57856;SDS011;43683;48.650;9.290;2023-05-02T10:16:33;14.80;;;9.70;;
57856;SDS011;43683;48.650;9.290;2023-05-02T10:19:04;13.93;;;8.80;;
57856;SDS011;43683;48.650;9.290;2023-05-02T10:21:33;13.02;;;9.40;;
57856;SDS011;43683;48.650;9.290;2023-05-02T10:24:00;15.07;;;10.05;;
57856;SDS011;43683;48.650;9.290;2023-05-02T10:26:29;15.00;;;9.55;;
57856;SDS011;43683;48.650;9.290;2023-05-02T10:28:55;14.15;;;9.20;;
57856;SDS011;43683;48.650;9.290;2023-05-02T10:31:21;12.15;;;8.68;;
57856;SDS011;43683;48.650;9.290;2023-05-02T10:33:50;15.00;;;9.57;;
57856;SDS011;43683;48.650;9.290;2023-05-02T10:36:19;14.40;;;9.25;;
57856;SDS011;43683;48.650;9.290;2023-05-02T10:38:46;14.73;;;9.50;;
57856;SDS011;43683;48.650;9.290;2023-05-02T10:41:19;15.40;;;9.73;;
57856;SDS011;43683;48.650;9.290;2023-05-02T10:43:50;14.95;;;8.25;;
57856;SDS011;43683;48.650;9.290;2023-05-02T10:51:26;12.93;;;8.60;;
57856;SDS011;43683;48.650;9.290;2023-05-02T10:53:53;14.82;;;9.88;;
57856;SDS011;43683;48.650;9.290;2023-05-02T10:56:21;13.27;;;9.18;;
57856;SDS011;43683;48.650;9.290;2023-05-02T10:58:49;16.98;;;10.60;;
57856;SDS011;43683;48.650;9.290;2023-05-02T11:06:23;14.80;;;9.65;;
57856;SDS011;43683;48.650;9.290;2023-05-02T11:19:24;12.63;;;8.90;;
57856;SDS011;43683;48.650;9.290;2023-05-02T11:21:50;13.25;;;8.77;;
57856;SDS011;43683;48.650;9.290;2023-05-02T11:24:40;14.27;;;8.40;;
57856;SDS011;43683;48.650;9.290;2023-05-02T11:29:58;12.68;;;8.40;;
57856;SDS011;43683;48.650;9.290;2023-05-02T11:35:13;14.73;;;9.85;;
57856;SDS011;43683;48.650;9.290;2023-05-02T11:40:18;13.02;;;9.07;;
57856;SDS011;43683;48.650;9.290;2023-05-02T11:42:44;12.98;;;7.82;;
57856;SDS011;43683;48.650;9.290;2023-05-02T11:45:10;13.63;;;8.68;;
57856;SDS011;43683;48.650;9.290;2023-05-02T11:47:35;11.88;;;7.65;;
57856;SDS011;43683;48.650;9.290;2023-05-02T11:50:04;12.35;;;7.90;;
57856;SDS011;43683;48.650;9.290;2023-05-02T11:52:35;11.40;;;7.75;;
57856;SDS011;43683;48.650;9.290;2023-05-02T11:55:03;11.80;;;8.15;;
57856;SDS011;43683;48.650;9.290;2023-05-02T11:57:32;13.35;;;8.18;;
57856;SDS011;43683;48.650;9.290;2023-05-02T11:59:57;12.80;;;7.55;;
57856;SDS011;43683;48.650;9.290;2023-05-02T12:02:35;10.73;;;7.00;;
57856;SDS011;43683;48.650;9.290;2023-05-02T12:05:05;12.75;;;8.05;;
57856;SDS011;43683;48.650;9.290;2023-05-02T12:07:38;11.23;;;7.75;;
57856;SDS011;43683;48.650;9.290;2023-05-02T12:10:14;14.55;;;8.07;;
57856;SDS011;43683;48.650;9.290;2023-05-02T12:12:42;13.07;;;7.93;;
57856;SDS011;43683;48.650;9.290;2023-05-02T12:15:09;13.27;;;7.40;;
57856;SDS011;43683;48.650;9.290;2023-05-02T12:17:36;14.00;;;8.30;;
57856;SDS011;43683;48.650;9.290;2023-05-02T12:20:07;12.82;;;8.20;;
57856;SDS011;43683;48.650;9.290;2023-05-02T12:22:34;11.57;;;7.05;;
57856;SDS011;43683;48.650;9.290;2023-05-02T12:25:01;13.55;;;8.00;;
57856;SDS011;43683;48.650;9.290;2023-05-02T12:27:30;12.55;;;8.77;;
57856;SDS011;43683;48.650;9.290;2023-05-02T12:29:59;11.80;;;7.50;;
57856;SDS011;43683;48.650;9.290;2023-05-02T12:32:28;12.25;;;7.28;;
57856;SDS011;43683;48.650;9.290;2023-05-02T12:34:58;11.18;;;7.72;;
57856;SDS011;43683;48.650;9.290;2023-05-02T12:37:25;12.00;;;7.82;;
57856;SDS011;43683;48.650;9.290;2023-05-02T12:39:52;13.90;;;8.35;;
57856;SDS011;43683;48.650;9.290;2023-05-02T12:42:20;11.45;;;7.40;;
57856;SDS011;43683;48.650;9.290;2023-05-02T12:44:46;10.80;;;6.68;;
57856;SDS011;43683;48.650;9.290;2023-05-02T12:47:14;13.73;;;8.25;;
57856;SDS011;43683;48.650;9.290;2023-05-02T12:54:46;13.10;;;7.85;;
57856;SDS011;43683;48.650;9.290;2023-05-02T12:57:25;11.43;;;7.55;;
57856;SDS011;43683;48.650;9.290;2023-05-02T12:59:51;14.25;;;7.50;;
57856;SDS011;43683;48.650;9.290;2023-05-02T13:02:18;12.32;;;7.85;;
57856;SDS011;43683;48.650;9.290;2023-05-02T13:04:44;12.85;;;8.02;;
57856;SDS011;43683;48.650;9.290;2023-05-02T13:07:09;11.32;;;6.95;;
57856;SDS011;43683;48.650;9.290;2023-05-02T13:09:35;12.15;;;8.00;;
57856;SDS011;43683;48.650;9.290;2023-05-02T13:12:01;14.25;;;8.30;;
57856;SDS011;43683;48.650;9.290;2023-05-02T13:14:30;15.02;;;9.38;;
57856;SDS011;43683;48.650;9.290;2023-05-02T13:16:55;17.20;;;9.70;;
57856;SDS011;43683;48.650;9.290;2023-05-02T13:19:21;15.25;;;9.55;;
57856;SDS011;43683;48.650;9.290;2023-05-02T13:21:47;16.58;;;9.23;;
57856;SDS011;43683;48.650;9.290;2023-05-02T13:24:12;14.98;;;9.55;;
57856;SDS011;43683;48.650;9.290;2023-05-02T13:26:39;16.25;;;10.18;;
57856;SDS011;43683;48.650;9.290;2023-05-02T13:29:05;17.52;;;10.90;;
57856;SDS011;43683;48.650;9.290;2023-05-02T13:31:30;18.17;;;10.43;;
57856;SDS011;43683;48.650;9.290;2023-05-02T13:33:56;19.65;;;11.27;;
57856;SDS011;43683;48.650;9.290;2023-05-02T13:36:21;20.55;;;11.65;;
57856;SDS011;43683;48.650;9.290;2023-05-02T13:38:48;19.02;;;11.18;;
57856;SDS011;43683;48.650;9.290;2023-05-02T13:41:14;17.00;;;10.10;;
57856;SDS011;43683;48.650;9.290;2023-05-02T13:43:40;15.35;;;9.60;;
57856;SDS011;43683;48.650;9.290;2023-05-02T13:46:05;17.77;;;10.55;;
57856;SDS011;43683;48.650;9.290;2023-05-02T13:48:31;17.38;;;10.35;;
57856;SDS011;43683;48.650;9.290;2023-05-02T13:50:56;16.92;;;10.07;;
57856;SDS011;43683;48.650;9.290;2023-05-02T13:53:22;13.63;;;9.00;;
57856;SDS011;43683;48.650;9.290;2023-05-02T13:55:47;15.00;;;9.48;;
57856;SDS011;43683;48.650;9.290;2023-05-02T13:58:13;16.25;;;9.40;;
57856;SDS011;43683;48.650;9.290;2023-05-02T14:00:38;18.40;;;10.05;;
57856;SDS011;43683;48.650;9.290;2023-05-02T14:03:04;16.05;;;9.02;;
57856;SDS011;43683;48.650;9.290;2023-05-02T14:05:30;15.82;;;8.98;;
57856;SDS011;43683;48.650;9.290;2023-05-02T14:07:56;16.50;;;9.40;;
57856;SDS011;43683;48.650;9.290;2023-05-02T14:10:21;16.98;;;9.32;;
57856;SDS011;43683;48.650;9.290;2023-05-02T14:12:47;14.10;;;8.82;;
57856;SDS011;43683;48.650;9.290;2023-05-02T14:15:12;15.25;;;8.82;;
57856;SDS011;43683;48.650;9.290;2023-05-02T14:17:38;13.98;;;8.30;;
57856;SDS011;43683;48.650;9.290;2023-05-02T14:20:03;15.52;;;9.45;;
57856;SDS011;43683;48.650;9.290;2023-05-02T14:22:30;15.27;;;8.70;;
57856;SDS011;43683;48.650;9.290;2023-05-02T14:24:55;12.30;;;7.55;;
57856;SDS011;43683;48.650;9.290;2023-05-02T14:27:21;14.95;;;7.88;;
57856;SDS011;43683;48.650;9.290;2023-05-02T14:29:47;13.77;;;7.78;;
57856;SDS011;43683;48.650;9.290;2023-05-02T14:32:12;13.63;;;8.40;;
57856;SDS011;43683;48.650;9.290;2023-05-02T14:34:38;13.15;;;7.72;;
57856;SDS011;43683;48.650;9.290;2023-05-02T14:37:04;12.77;;;7.80;;
57856;SDS011;43683;48.650;9.290;2023-05-02T14:39:30;12.60;;;7.80;;
57856;SDS011;43683;48.650;9.290;2023-05-02T14:41:56;14.18;;;8.77;;
57856;SDS011;43683;48.650;9.290;2023-05-02T14:44:22;12.63;;;7.93;;
57856;SDS011;43683;48.650;9.290;2023-05-02T14:46:47;14.77;;;8.20;;
57856;SDS011;43683;48.650;9.290;2023-05-02T14:49:13;13.38;;;8.43;;
57856;SDS011;43683;48.650;9.290;2023-05-02T14:51:38;13.43;;;7.82;;
57856;SDS011;43683;48.650;9.290;2023-05-02T14:54:04;13.98;;;8.40;;
57856;SDS011;43683;48.650;9.290;2023-05-02T14:56:31;13.82;;;7.50;;
57856;SDS011;43683;48.650;9.290;2023-05-02T14:58:57;13.32;;;7.38;;
57856;SDS011;43683;48.650;9.290;2023-05-02T15:01:22;12.18;;;7.05;;
57856;SDS011;43683;48.650;9.290;2023-05-02T15:03:48;12.88;;;7.32;;
57856;SDS011;43683;48.650;9.290;2023-05-02T15:06:15;11.68;;;7.43;;
57856;SDS011;43683;48.650;9.290;2023-05-02T15:08:41;10.30;;;6.15;;
57856;SDS011;43683;48.650;9.290;2023-05-02T15:11:08;13.05;;;7.45;;
57856;SDS011;43683;48.650;9.290;2023-05-02T15:13:34;11.85;;;6.72;;
57856;SDS011;43683;48.650;9.290;2023-05-02T15:16:01;11.05;;;6.38;;
57856;SDS011;43683;48.650;9.290;2023-05-02T15:18:26;12.55;;;6.78;;
57856;SDS011;43683;48.650;9.290;2023-05-02T15:20:52;12.32;;;7.22;;
57856;SDS011;43683;48.650;9.290;2023-05-02T15:23:17;11.38;;;6.80;;
57856;SDS011;43683;48.650;9.290;2023-05-02T15:25:43;10.80;;;5.80;;
57856;SDS011;43683;48.650;9.290;2023-05-02T15:28:08;10.35;;;5.60;;
57856;SDS011;43683;48.650;9.290;2023-05-02T15:30:34;9.27;;;5.13;;
57856;SDS011;43683;48.650;9.290;2023-05-02T15:33:00;11.13;;;5.55;;
57856;SDS011;43683;48.650;9.290;2023-05-02T15:35:26;10.53;;;5.50;;
57856;SDS011;43683;48.650;9.290;2023-05-02T15:37:52;8.73;;;4.88;;